Atlanta, New York
Current Conditions -  °F | °C
As of 12:54 PM on Thursday 29 Jan 2015 (Local Time) from KDSV Reporting Station
Overcast Overcast  
Wind Chill: 26°   Ceiling: 6000
Heat Index: 35°   Visibility: 10mi
Dew Point:   Wind: 14mph
Humidity: 31%   Direction: 140°SE
Pressure: 29.84"   Gusts: 22mph
Location:  42.55°N, 77.47°W
Report Text: KDSV 291754Z AUTO 14012G19KT 10SM OVC060 02/M14 A2984 RMK AO2 PK WND 15026/1731 SLP123 T00171139 10017 21122 56064
Loading
Personal Weather Stations






























Interactive Weather Map New forecast layout! Learn more

10-Day Weather Forecast

Advertisements
Track Severe Weather on mobile